• Join FlightAware (Why Join?)
  • Login
  • US Flag 
03:19AM EST


 

Airport Tracker/Info


-or-


 

Live Flight TrackerFlight Track Log ✈ N476DS ✈ 20-Oct-2013 ✈ KLYH - KCDW

Flight Track Log - Related Links

Times and Time Zones

All times are in EDT time to prevent confusion due to time zone crossing. See the N476DS flight status page for this flight to view local times or setup timezone preferences in your user account.

Time Position Orientation Groundspeed Altitude Reporting Facility
EDT Latitude Longitude Course Direction KTS MPH feet Rate Location/Type
01:55PM 37.5110 -78.9624 76° East  Level Estimated
01:56PM 37.4950 -78.9104 111° Southeast  Level FlightAware Approximate
01:57PM 37.5261 -78.8708 76° East  Level Estimated
01:58PM 37.5218 -78.8153 96° East  Level FlightAware Approximate
01:58PM 37.3303 -78.9194 96° East 123 142 7,700  Level Washington Center
01:59PM 37.5175 -78.7598 96° East  Level FlightAware Approximate
01:59PM 37.3297 -78.8644 91° East 123 142 8,400  Level Washington Center
02:00PM 37.5131 -78.7043 96° East  Level FlightAware Approximate
02:00PM 37.3394 -78.8206 74° East 123 142 8,700  Level Washington Center
02:00PM 37.3489 -78.7739 76° East 123 142 9,000 120 Climbing Washington Center
02:01PM 37.5087 -78.6488 96° East  Level FlightAware Approximate
02:02PM 37.5043 -78.5933 96° East  Level FlightAware Approximate
02:02PM 37.3586 -78.7194 77° East 138 159 9,000  Level Washington Center
02:03PM 37.3706 -78.6650 75° East 158 182 9,000  Level Washington Center
02:03PM 37.3822 -78.6106 75° East 163 188 9,000  Level Washington Center
02:04PM 37.3922 -78.5536 78° East 163 188 9,000  Level Washington Center
02:06PM 37.4017 -78.4989 78° East 163 188 9,000  Level Washington Center
02:07PM 37.4136 -78.4367 76° East 163 188 9,000  Level Washington Center
02:07PM 37.4256 -78.3822 75° East 163 188 9,000  Level Washington Center
02:08PM 37.4372 -78.3225 76° East 163 188 9,000  Level Washington Center
02:09PM 37.4467 -78.2678 78° East 163 188 9,000  Level Washington Center
02:10PM 37.4583 -78.2161 74° East 163 188 9,000  Level Washington Center
02:12PM 37.4661 -78.1508 81° East 163 188 9,000  Level Washington Center
02:13PM 37.4756 -78.0989 77° East 163 188 9,000  Level Washington Center
02:13PM 37.4872 -78.0417 76° East 163 188 9,000  Level Washington Center
02:14PM 37.4986 -77.9844 76° East 163 188 9,000  Level Washington Center
02:15PM 37.5103 -77.9272 76° East 163 188 9,000  Level Washington Center
02:17PM 37.5197 -77.8697 78° East 163 188 9,000  Level Washington Center
02:17PM 37.5269 -77.8125 81° East 163 188 9,000  Level Washington Center
02:18PM 37.5322 -77.7575 83° East 158 182 9,000  Level Washington Center
02:19PM 37.5558 -77.7136 56° Northeast 153 176 9,000  Level Washington Center
02:21PM 37.5797 -77.6672 57° Northeast 153 176 9,000  Level Washington Center
02:23PM 37.6333 -77.5333 63° Northeast 164 189 9,000  Level Potomac TRACON
02:24PM 37.6667 -77.4833 50° Northeast 163 188 9,000  Level Potomac TRACON
02:25PM 37.6833 -77.4333 67° East 163 188 9,000  Level Potomac TRACON
02:26PM 37.7167 -77.3833 50° Northeast 167 192 9,000  Level Potomac TRACON
02:27PM 37.7333 -77.3333 67° East 161 185 9,000  Level Potomac TRACON
02:28PM 37.7667 -77.2833 50° Northeast 162 186 9,000  Level Potomac TRACON
02:29PM 37.7833 -77.2500 58° Northeast 157 181 9,000  Level Potomac TRACON
02:30PM 37.8000 -77.2000 67° East 170 196 9,000  Level Potomac TRACON
02:31PM 37.8253 -77.1508 57° Northeast 169 194 9,000  Level Washington Center
02:32PM 37.8489 -77.1014 59° Northeast 163 188 9,000  Level Washington Center
02:33PM 37.8725 -77.0517 59° Northeast 171 197 9,000  Level Washington Center
02:34PM 37.8939 -77.0022 61° Northeast 165 190 9,000  Level Washington Center
02:35PM 37.9172 -76.9553 58° Northeast 160 184 9,000  Level Washington Center
02:36PM 37.9408 -76.9056 59° Northeast 160 184 9,000  Level Washington Center
02:37PM 37.9622 -76.8586 60° Northeast 160 184 9,000  Level Washington Center
02:38PM 37.9919 -76.8144 49° Northeast 165 190 9,000  Level Washington Center
02:39PM 38.0194 -76.7725 50° Northeast 160 184 9,000  Level Washington Center
02:40PM 38.0489 -76.7308 48° Northeast 154 177 9,000  Level Washington Center
02:41PM 38.0825 -76.7025 34° Northeast 149 171 9,000  Level Washington Center
02:42PM 38.1183 -76.6686 37° Northeast 149 171 9,000  Level Washington Center
02:43PM 38.1456 -76.6425 37° Northeast 149 171 9,000  Level Washington Center
02:44PM 38.1836 -76.6008 41° Northeast 149 171 9,000  Level Washington Center
02:45PM 38.2172 -76.5669 38° Northeast 149 171 9,000  Level Washington Center
02:46PM 38.2508 -76.5303 41° Northeast 149 171 9,000  Level Washington Center
02:47PM 38.2867 -76.4992 34° Northeast 154 177 9,000  Level Washington Center
02:48PM 38.3222 -76.4650 37° Northeast 159 183 9,000  Level Washington Center
02:49PM 38.3558 -76.4311 38° Northeast 159 183 9,000  Level Washington Center
02:50PM 38.3894 -76.3969 39° Northeast 154 177 9,000  Level Washington Center
02:51PM 38.4231 -76.3628 39° Northeast 154 177 9,000  Level Washington Center
02:52PM 38.4567 -76.3261 41° Northeast 154 177 9,000  Level Washington Center
02:53PM 38.4903 -76.2944 36° Northeast 154 177 9,000  Level Washington Center
02:54PM 38.5236 -76.2578 41° Northeast 159 183 9,000  Level Washington Center
02:55PM 38.5594 -76.2208 39° Northeast 159 183 9,000  Level Washington Center
02:56PM 38.5950 -76.1867 37° Northeast 159 183 9,000  Level Washington Center
02:57PM 38.6347 -76.1444 40° Northeast 167 192 9,000  Level Washington Center
02:58PM 38.6683 -76.1075 41° Northeast 162 186 9,000  Level Washington Center
02:59PM 38.7019 -76.0731 39° Northeast 157 181 9,000  Level Washington Center
03:00PM 38.7375 -76.0361 39° Northeast 157 181 9,000  Level Washington Center
03:01PM 38.7708 -76.0017 39° Northeast 157 181 9,000  Level Washington Center
03:02PM 38.8044 -75.9647 41° Northeast 157 181 9,000  Level Washington Center
03:03PM 38.8419 -75.9300 36° Northeast 157 181 9,000 -240 Level Washington Center
03:04PM 38.8775 -75.8931 39° Northeast 157 181 8,600 -480 Descending Washington Center
03:05PM 38.9150 -75.8503 42° Northeast 162 186 8,100 -360 Descending Washington Center
03:06PM 38.9506 -75.8131 39° Northeast 162 186 8,000 -180 Descending Washington Center
03:07PM 38.9861 -75.7758 39° Northeast 156 180 7,800 -360 Descending Washington Center
03:08PM 39.0217 -75.7358 41° Northeast 161 185 7,300 -540 Descending Washington Center
03:09PM 39.0694 -75.7011 29° Northeast 161 185 6,700 -600 Descending Washington Center
03:10PM 39.1133 -75.6933 North 155 178 6,200 -540 Descending Washington Center
03:11PM 39.1550 -75.6881 North 155 178 5,700 -540 Descending Washington Center
03:12PM 39.1947 -75.6828 North 149 171 5,200 -300 Descending Washington Center
03:14PM 39.2667 -75.6667 10° North 136 157 5,000 60 Descending Philadelphia TRACON
03:15PM 39.3000 -75.6667 360° North 124 143 5,400 600 Climbing Philadelphia TRACON
03:16PM 39.3333 -75.6667 360° North 96 110 6,400 660 Climbing Philadelphia TRACON
03:17PM 39.3500 -75.6667 360° North 97 112 6,800 300 Climbing Philadelphia TRACON
03:18PM 39.3833 -75.6500 21° North 121 139 7,000 60 Climbing Philadelphia TRACON
03:19PM 39.4167 -75.6500 360° North 136 157 7,000  Level Philadelphia TRACON
03:20PM 39.4667 -75.6500 360° North 137 158 7,000  Level Philadelphia TRACON
03:21PM 39.5000 -75.6333 21° North 136 157 7,000  Level Philadelphia TRACON
03:22PM 39.5333 -75.6333 360° North 137 158 7,000  Level Philadelphia TRACON
03:23PM 39.5833 -75.6167 14° North 134 154 7,000  Level Philadelphia TRACON
03:24PM 39.6167 -75.6167 360° North 132 152 7,000  Level Philadelphia TRACON
03:25PM 39.6500 -75.6167 360° North 132 152 7,000  Level Philadelphia TRACON
03:26PM 39.6833 -75.6167 360° North 136 157 7,000  Level Philadelphia TRACON
03:27PM 39.7167 -75.6167 360° North 130 150 7,000  Level Philadelphia TRACON
03:28PM 39.7500 -75.6333 339° North 131 151 7,000  Level Philadelphia TRACON
03:29PM 39.7833 -75.6333 360° North 131 151 7,000  Level Philadelphia TRACON
03:30PM 39.8333 -75.6500 346° North 132 152 7,000  Level Philadelphia TRACON
03:31PM 39.8500 -75.6500 360° North 129 148 7,000  Level Philadelphia TRACON
03:32PM 39.9000 -75.6667 346° North 128 147 7,000  Level Philadelphia TRACON
03:33PM 39.9333 -75.6667 360° North 141 162 7,100  Climbing Philadelphia TRACON
03:34PM 39.9667 -75.6167 49° Northeast 144 166 7,000 -60 Descending Philadelphia TRACON
03:35PM 39.9833 -75.5833 57° Northeast 147 169 7,000  Level Philadelphia TRACON
03:36PM 40.0167 -75.5333 49° Northeast 146 168 7,000  Level Philadelphia TRACON
03:37PM 40.0333 -75.5000 57° Northeast 151 174 7,000  Level Philadelphia TRACON
03:38PM 40.0667 -75.4667 37° Northeast 145 167 7,000  Level Philadelphia TRACON
03:39PM 40.1000 -75.4333 37° Northeast 149 171 7,000  Level Philadelphia TRACON
03:40PM 40.1167 -75.3833 66° East 142 163 7,000 -240 Level Philadelphia TRACON
03:41PM 40.1500 -75.3500 37° Northeast 157 181 6,600 -420 Descending Philadelphia TRACON
03:42PM 40.1833 -75.3000 49° Northeast 156 180 6,200 -300 Descending Philadelphia TRACON
03:43PM 40.2167 -75.2667 37° Northeast 148 170 6,000 -180 Descending Philadelphia TRACON
03:44PM 40.2333 -75.2333 57° Northeast 138 159 5,900 -300 Descending Philadelphia TRACON
03:46PM 40.3000 -75.1500 44° Northeast 163 188 5,100 -360 Descending New York TRACON
03:47PM 40.3333 -75.1000 49° Northeast 162 186 4,800 -180 Descending New York TRACON
03:48PM 40.3500 -75.0833 37° Northeast 158 182 4,800 -480 Level New York TRACON
03:49PM 40.3833 -75.0167 57° Northeast 155 178 3,900 -480 Descending New York TRACON
03:50PM 40.4167 -74.9667 49° Northeast 139 160 3,900  Level New York TRACON
03:51PM 40.4500 -74.9333 37° Northeast 142 163 3,900  Level New York TRACON
03:52PM 40.4667 -74.9000 57° Northeast 142 163 3,900  Level New York TRACON
03:53PM 40.5000 -74.8667 37° Northeast 143 165 3,900  Level New York TRACON
03:54PM 40.5333 -74.8167 49° Northeast 143 165 3,900  Level New York TRACON
03:55PM 40.5500 -74.7833 57° Northeast 138 159 3,900  Level New York TRACON
03:56PM 40.5833 -74.7500 37° Northeast 142 163 3,900  Level New York TRACON
03:57PM 40.6000 -74.7167 57° Northeast 131 151 3,900  Level New York TRACON
03:58PM 40.6333 -74.7000 21° North 137 158 3,900  Level New York TRACON
03:59PM 40.6667 -74.6667 37° Northeast 134 154 4,000  Climbing New York TRACON
04:00PM 40.7000 -74.6500 21° North 137 158 4,000  Level New York TRACON
04:01PM 40.7333 -74.6167 37° Northeast 140 161 4,000  Level New York TRACON
04:02PM 40.7667 -74.5833 37° Northeast 139 160 4,000  Level New York TRACON
04:03PM 40.8000 -74.5667 21° North 133 153 4,000  Level New York TRACON
04:04PM 40.8333 -74.5333 37° Northeast 128 147 4,000 -300 Level New York TRACON
04:05PM 40.8500 -74.4833 66° East 149 171 3,500 -480 Descending New York TRACON
04:06PM 40.8500 -74.4333 90° East 149 171 3,100 -300 Descending New York TRACON
04:07PM 40.8667 -74.3833 66° East 131 151 3,000 -600 Descending New York TRACON
04:08PM 40.8667 -74.3333 90° East 136 157 1,900 -900 Descending New York TRACON
04:09PM 40.8500 -74.3000 123° Southeast 119 137 1,200 -360 Descending New York TRACON
04:10PM 40.8500 -74.2500 90° East 104 120 1,200 -120 Level New York TRACON
04:11PM 40.8833 -74.2500 360° North 88 101 1,000 -240 Descending New York TRACON
04:13PM 40.8752 -74.2814 217° Southwest  Level Estimated
04:20PM 40.8752 -74.2814 52° Northeast  Level Estimated